createdAt,value
2022-08-17T00:01:51.285Z,22.11
2022-08-17T00:04:22.834Z,21.99
2022-08-17T00:06:50.660Z,21.94
2022-08-17T00:09:18.718Z,21.89
2022-08-17T00:12:03.955Z,21.83
2022-08-17T00:14:36.573Z,21.77
2022-08-17T00:17:05.161Z,21.74
2022-08-17T00:19:33.008Z,21.72
2022-08-17T00:22:35.151Z,21.72
2022-08-17T00:24:52.225Z,21.67
2022-08-17T00:27:19.491Z,21.62
2022-08-17T00:29:46.942Z,21.66
2022-08-17T00:33:11.985Z,21.63
2022-08-17T00:35:05.913Z,21.59
2022-08-17T00:37:33.030Z,21.60
2022-08-17T00:40:00.206Z,21.51
2022-08-17T00:42:30.974Z,21.42
2022-08-17T00:44:58.807Z,21.28
2022-08-17T00:47:26.105Z,21.14
2022-08-17T00:49:54.066Z,21.03
2022-08-17T00:52:25.003Z,20.91
2022-08-17T00:54:54.471Z,20.82
2022-08-17T00:57:24.706Z,20.71
2022-08-17T01:00:03.180Z,20.60
2022-08-17T01:02:42.253Z,20.54
2022-08-17T01:05:19.842Z,20.52
2022-08-17T01:07:51.128Z,20.52
2022-08-17T01:11:00.423Z,20.50
2022-08-17T01:13:11.291Z,20.54
2022-08-17T01:15:46.130Z,20.59
2022-08-17T01:18:17.267Z,20.56
2022-08-17T01:20:49.469Z,20.57
2022-08-17T01:23:23.398Z,20.49
2022-08-17T01:25:53.072Z,20.58
2022-08-17T01:28:52.418Z,20.61
2022-08-17T01:31:15.022Z,20.58
2022-08-17T01:33:42.320Z,20.50
2022-08-17T01:36:10.191Z,20.42
2022-08-17T01:38:38.559Z,20.37
2022-08-17T01:41:12.644Z,20.35
2022-08-17T01:43:51.410Z,20.32
2022-08-17T01:46:27.203Z,20.30
2022-08-17T01:48:57.685Z,20.31
2022-08-17T01:51:32.191Z,20.32
2022-08-17T01:54:06.382Z,20.26
2022-08-17T01:56:36.909Z,20.27
2022-08-17T01:59:04.592Z,20.21
2022-08-17T02:01:34.690Z,20.19
2022-08-17T02:04:02.998Z,20.12
2022-08-17T02:06:52.512Z,20.06
2022-08-17T02:09:25.666Z,19.96
2022-08-17T02:11:57.974Z,20.02
2022-08-17T02:14:28.138Z,20.00
2022-08-17T02:16:56.217Z,19.93
2022-08-17T02:19:23.322Z,19.85
2022-08-17T02:21:52.485Z,19.81
2022-08-17T02:25:00.159Z,19.68
2022-08-17T02:27:12.260Z,19.59
2022-08-17T02:29:41.567Z,19.53
2022-08-17T02:32:27.175Z,19.58
2022-08-17T02:34:59.387Z,19.50
2022-08-17T02:37:28.070Z,19.41
2022-08-17T02:39:58.830Z,19.34
2022-08-17T02:42:35.608Z,19.33
2022-08-17T02:45:06.063Z,19.31
2022-08-17T02:47:33.809Z,19.25
2022-08-17T02:50:00.776Z,19.21
2022-08-17T02:52:53.270Z,19.23
2022-08-17T02:55:30.693Z,19.19
2022-08-17T02:57:57.903Z,19.17
2022-08-17T03:00:34.003Z,19.14
2022-08-17T03:03:05.686Z,19.05
2022-08-17T03:05:35.247Z,19.02
2022-08-17T03:08:03.209Z,19.04
2022-08-17T03:10:30.210Z,18.97
2022-08-17T03:12:57.204Z,18.94
2022-08-17T03:15:28.936Z,18.87
2022-08-17T03:17:56.850Z,18.80
2022-08-17T03:20:25.333Z,18.81
2022-08-17T03:22:55.712Z,18.79
2022-08-17T03:25:32.760Z,18.73
2022-08-17T03:28:01.833Z,18.67
2022-08-17T03:30:29.664Z,18.66
2022-08-17T03:33:03.992Z,18.66
2022-08-17T03:35:36.692Z,18.63
2022-08-17T03:38:05.200Z,18.60
2022-08-17T03:40:36.970Z,18.68
2022-08-17T03:43:23.445Z,18.67
2022-08-17T03:46:19.296Z,18.61
2022-08-17T03:49:15.466Z,18.57
2022-08-17T03:52:03.474Z,18.56
2022-08-17T03:54:49.020Z,18.57
2022-08-17T03:57:16.921Z,18.52
2022-08-17T03:59:47.736Z,18.52
2022-08-17T04:02:22.426Z,18.52
2022-08-17T04:04:54.065Z,18.53
2022-08-17T04:07:27.647Z,18.53
2022-08-17T04:09:55.162Z,18.56
2022-08-17T04:12:23.329Z,18.66
2022-08-17T04:14:52.731Z,18.67
2022-08-17T04:17:27.402Z,18.78
2022-08-17T04:19:57.021Z,18.85
2022-08-17T04:22:32.508Z,18.86
2022-08-17T04:25:16.856Z,18.98
2022-08-17T04:27:44.197Z,19.35
2022-08-17T04:30:14.832Z,19.39
2022-08-17T04:33:05.915Z,19.46
2022-08-17T04:35:41.279Z,19.59
2022-08-17T04:38:12.407Z,19.60
2022-08-17T04:41:01.114Z,19.57
2022-08-17T04:43:29.333Z,19.58
2022-08-17T04:46:06.464Z,19.59
2022-08-17T04:48:40.374Z,19.71
2022-08-17T04:51:11.248Z,19.75
2022-08-17T04:53:44.419Z,19.80
2022-08-17T04:56:16.954Z,19.87
2022-08-17T04:58:51.122Z,19.96
2022-08-17T05:01:24.822Z,20.11
2022-08-17T05:03:56.304Z,20.11
2022-08-17T05:06:26.782Z,20.17
2022-08-17T05:08:54.842Z,20.22
2022-08-17T05:11:24.144Z,20.33
2022-08-17T05:13:51.719Z,20.41
2022-08-17T05:16:20.611Z,20.49
2022-08-17T05:18:48.219Z,20.57
2022-08-17T05:21:15.943Z,20.71
2022-08-17T05:23:43.570Z,20.81
2022-08-17T05:26:25.738Z,20.93
2022-08-17T05:29:00.551Z,21.60
2022-08-17T05:31:32.230Z,22.16
2022-08-17T05:34:02.659Z,21.97
2022-08-17T05:36:41.902Z,21.88
2022-08-17T05:39:16.215Z,21.90
2022-08-17T05:41:48.404Z,21.87
2022-08-17T05:44:16.775Z,22.00
2022-08-17T05:46:51.059Z,22.22
2022-08-17T05:49:25.496Z,22.55
2022-08-17T05:52:21.017Z,22.47
2022-08-17T05:54:54.571Z,22.48
2022-08-17T05:57:29.323Z,22.56
2022-08-17T06:00:20.951Z,22.83
2022-08-17T06:02:53.838Z,23.02
2022-08-17T06:05:33.290Z,23.05
2022-08-17T06:08:08.864Z,22.99
2022-08-17T06:10:59.325Z,23.28
2022-08-17T06:13:59.089Z,23.25
2022-08-17T06:16:36.271Z,23.33
2022-08-17T06:19:21.279Z,23.95
2022-08-17T06:21:52.641Z,24.79
2022-08-17T06:24:34.356Z,24.76
2022-08-17T06:27:33.655Z,24.50
2022-08-17T06:30:21.964Z,24.37
2022-08-17T06:32:52.518Z,24.49
2022-08-17T06:35:32.023Z,24.31
2022-08-17T06:38:38.110Z,24.40
2022-08-17T06:41:22.593Z,24.99
2022-08-17T06:44:49.957Z,26.01
2022-08-17T06:47:30.024Z,27.67
2022-08-17T06:50:40.397Z,29.91
2022-08-17T06:53:29.836Z,31.55
2022-08-17T06:56:20.967Z,32.69
2022-08-17T06:58:50.892Z,33.92
2022-08-17T07:01:25.262Z,34.41
2022-08-17T07:04:12.358Z,35.09
2022-08-17T07:06:51.405Z,35.44
2022-08-17T07:09:34.116Z,35.62
2022-08-17T07:12:16.449Z,35.75
2022-08-17T07:14:46.228Z,36.16
2022-08-17T07:17:18.463Z,36.30
2022-08-17T07:19:48.106Z,36.44
2022-08-17T07:22:30.565Z,37.14
2022-08-17T07:25:20.867Z,37.01
2022-08-17T07:27:54.502Z,37.14
2022-08-17T07:30:31.271Z,37.40
2022-08-17T07:33:17.882Z,37.43
2022-08-17T07:35:50.167Z,37.40
2022-08-17T07:38:26.876Z,37.31
2022-08-17T07:40:57.902Z,37.32
2022-08-17T07:43:31.181Z,37.52
2022-08-17T07:46:23.138Z,37.78
2022-08-17T07:48:53.786Z,37.49
2022-08-17T07:51:32.277Z,37.79
2022-08-17T07:54:23.230Z,37.27
2022-08-17T07:57:02.010Z,37.99
2022-08-17T07:59:35.899Z,38.38
2022-08-17T08:02:15.741Z,38.20
2022-08-17T08:05:01.107Z,37.82
2022-08-17T08:07:38.463Z,37.90
2022-08-17T08:10:11.101Z,38.92
2022-08-17T08:12:45.301Z,39.35
2022-08-17T08:15:19.160Z,39.20
2022-08-17T08:17:59.381Z,39.82
2022-08-17T08:21:04.194Z,39.67
2022-08-17T08:23:37.282Z,39.64
2022-08-17T08:26:26.468Z,39.72
2022-08-17T08:29:18.759Z,39.61
2022-08-17T08:31:58.903Z,40.21
2022-08-17T08:35:03.755Z,40.92
2022-08-17T08:37:40.536Z,40.16
2022-08-17T08:40:13.633Z,39.88
2022-08-17T08:42:56.721Z,39.59
2022-08-17T08:45:33.033Z,39.70
2022-08-17T08:48:46.043Z,40.49
2022-08-17T08:51:16.497Z,40.43
2022-08-17T08:54:09.509Z,40.45
2022-08-17T08:57:33.487Z,40.75
2022-08-17T09:00:35.940Z,41.05
2022-08-17T09:03:08.486Z,40.62
2022-08-17T09:06:06.831Z,40.61
2022-08-17T09:09:18.794Z,40.38
2022-08-17T09:12:17.625Z,40.20
2022-08-17T09:15:12.815Z,40.43
2022-08-17T09:18:08.601Z,40.59
2022-08-17T09:20:54.000Z,40.99
2022-08-17T09:23:37.282Z,40.67
2022-08-17T09:26:23.827Z,40.38
2022-08-17T09:29:01.592Z,40.54
2022-08-17T09:31:35.601Z,40.33
2022-08-17T09:34:33.050Z,40.08
2022-08-17T09:37:23.245Z,40.97
2022-08-17T09:40:05.625Z,41.01
2022-08-17T09:42:50.087Z,40.69
2022-08-17T09:45:23.152Z,40.61
2022-08-17T09:47:53.955Z,40.70
2022-08-17T09:51:03.462Z,40.30
2022-08-17T09:53:15.617Z,39.69
2022-08-17T09:55:45.783Z,40.12
2022-08-17T09:58:30.697Z,39.91
2022-08-17T10:01:08.739Z,39.83
2022-08-17T10:04:03.657Z,39.27
2022-08-17T10:06:37.934Z,39.84
2022-08-17T10:09:40.280Z,39.66
2022-08-17T10:12:17.078Z,39.20
2022-08-17T10:14:55.141Z,39.41
2022-08-17T10:17:35.264Z,38.59
2022-08-17T10:20:29.803Z,38.91
2022-08-17T10:23:21.690Z,38.41
2022-08-17T10:26:17.069Z,38.45
2022-08-17T10:28:53.268Z,38.78
2022-08-17T10:31:36.262Z,38.33
2022-08-17T10:34:12.413Z,38.08
2022-08-17T10:36:46.257Z,38.68
2022-08-17T10:39:36.287Z,38.27
2022-08-17T10:42:37.436Z,37.88
2022-08-17T10:45:26.397Z,37.65
2022-08-17T10:48:04.747Z,37.65
2022-08-17T10:50:44.439Z,36.95
2022-08-17T10:53:33.799Z,36.94
2022-08-17T10:56:13.242Z,36.95
2022-08-17T10:58:50.777Z,36.58
2022-08-17T11:01:18.460Z,36.17
2022-08-17T11:03:56.844Z,36.00
2022-08-17T11:06:32.903Z,36.02
2022-08-17T11:09:21.532Z,35.53
2022-08-17T11:12:37.665Z,35.57
2022-08-17T11:15:44.029Z,35.46
2022-08-17T11:18:30.671Z,34.96
2022-08-17T11:21:21.985Z,34.70
2022-08-17T11:24:01.573Z,34.72
2022-08-17T11:26:32.104Z,34.94
2022-08-17T11:29:09.078Z,34.84
2022-08-17T11:31:46.627Z,35.13
2022-08-17T11:34:15.937Z,34.55
2022-08-17T11:37:06.927Z,34.60
2022-08-17T11:40:06.429Z,34.74
2022-08-17T11:42:45.064Z,34.75
2022-08-17T11:45:34.144Z,34.62
2022-08-17T11:48:40.545Z,34.77
2022-08-17T11:51:35.609Z,34.61
2022-08-17T11:54:31.586Z,34.79
2022-08-17T11:56:59.045Z,34.78
2022-08-17T11:59:36.472Z,34.70
2022-08-17T12:02:29.864Z,34.33
2022-08-17T12:05:17.103Z,34.30
2022-08-17T12:08:15.419Z,34.44
2022-08-17T12:10:54.581Z,34.28
2022-08-17T12:13:30.523Z,34.21
2022-08-17T12:16:03.561Z,34.23
2022-08-17T12:18:39.134Z,34.19
2022-08-17T12:21:23.419Z,34.05
2022-08-17T12:24:06.605Z,34.09
2022-08-17T12:26:36.907Z,33.97
2022-08-17T12:29:18.301Z,33.92
2022-08-17T12:32:03.818Z,33.96
2022-08-17T12:34:42.949Z,33.98
2022-08-17T12:37:27.866Z,34.13
2022-08-17T12:40:04.183Z,33.99
2022-08-17T12:42:37.307Z,33.95
2022-08-17T12:45:07.538Z,33.96
2022-08-17T12:47:38.079Z,34.01
2022-08-17T12:50:28.955Z,33.92
2022-08-17T12:53:01.685Z,33.86
2022-08-17T12:55:36.786Z,33.84
2022-08-17T12:58:04.413Z,33.85
2022-08-17T13:00:36.467Z,33.80
2022-08-17T13:03:19.404Z,33.97
2022-08-17T13:05:52.730Z,34.09
2022-08-17T13:08:24.650Z,34.02
2022-08-17T13:11:01.566Z,34.09
2022-08-17T13:13:34.894Z,34.00
2022-08-17T13:16:03.670Z,33.94
2022-08-17T13:18:55.287Z,33.92
2022-08-17T13:21:22.961Z,33.86
2022-08-17T13:24:01.920Z,33.78
2022-08-17T13:26:48.689Z,33.78
2022-08-17T13:29:39.283Z,33.73
2022-08-17T13:32:13.254Z,33.75
2022-08-17T13:34:51.385Z,33.63
2022-08-17T13:37:36.656Z,33.64
2022-08-17T13:40:29.161Z,33.66
2022-08-17T13:42:57.723Z,33.68
2022-08-17T13:45:39.132Z,33.68
2022-08-17T13:48:12.507Z,33.69
2022-08-17T13:50:55.428Z,33.79
2022-08-17T13:53:32.784Z,33.78
2022-08-17T13:56:34.933Z,33.77
2022-08-17T13:59:12.368Z,33.82
2022-08-17T14:01:51.121Z,33.80
2022-08-17T14:04:24.925Z,33.61
2022-08-17T14:07:03.708Z,33.48
2022-08-17T14:09:37.764Z,33.56
2022-08-17T14:12:17.050Z,33.59
2022-08-17T14:14:49.650Z,33.57
2022-08-17T14:17:23.075Z,33.64
2022-08-17T14:19:51.350Z,33.60
2022-08-17T14:22:32.116Z,33.33
2022-08-17T14:25:01.828Z,33.32
2022-08-17T14:27:32.014Z,33.26
2022-08-17T14:29:59.538Z,33.27
2022-08-17T14:32:30.209Z,33.16
2022-08-17T14:35:00.067Z,33.08
2022-08-17T14:37:28.688Z,33.05
2022-08-17T14:40:01.089Z,33.03
2022-08-17T14:42:32.505Z,33.06
2022-08-17T14:45:06.200Z,33.12
2022-08-17T14:47:55.677Z,33.19
2022-08-17T14:50:22.729Z,33.23
2022-08-17T14:52:50.972Z,33.24
2022-08-17T14:55:20.884Z,33.19
2022-08-17T14:57:48.590Z,33.16
2022-08-17T15:00:16.661Z,33.07
2022-08-17T15:02:53.846Z,33.13
2022-08-17T15:05:31.774Z,33.15
2022-08-17T15:08:02.650Z,33.16
2022-08-17T15:10:30.397Z,33.13
2022-08-17T15:12:57.965Z,33.06
2022-08-17T15:15:25.890Z,33.02
2022-08-17T15:17:53.330Z,32.94
2022-08-17T15:20:23.922Z,32.85
2022-08-17T15:22:55.559Z,32.83
2022-08-17T15:25:25.382Z,32.85
2022-08-17T15:27:52.936Z,32.73
2022-08-17T15:30:20.254Z,32.70
2022-08-17T15:32:54.557Z,32.63
2022-08-17T15:35:27.271Z,32.53
2022-08-17T15:38:06.511Z,32.39
2022-08-17T15:40:41.217Z,32.28
2022-08-17T15:43:13.521Z,32.20
2022-08-17T15:45:43.258Z,32.07
2022-08-17T15:48:10.455Z,31.98
2022-08-17T15:50:38.023Z,31.97
2022-08-17T15:53:07.433Z,31.99
2022-08-17T15:55:38.415Z,32.06
2022-08-17T15:58:05.948Z,32.03
2022-08-17T16:00:35.430Z,31.96
2022-08-17T16:04:01.182Z,31.97
2022-08-17T16:06:09.877Z,32.00
2022-08-17T16:08:38.670Z,31.99
2022-08-17T16:11:05.818Z,31.94
2022-08-17T16:13:33.055Z,31.92
2022-08-17T16:16:00.043Z,31.94
2022-08-17T16:18:31.127Z,31.80
2022-08-17T16:21:22.965Z,31.76
2022-08-17T16:23:52.109Z,31.64
2022-08-17T16:26:22.955Z,31.57
2022-08-17T16:28:51.086Z,31.58
2022-08-17T16:31:18.075Z,31.63
2022-08-17T16:34:16.284Z,31.67
2022-08-17T16:36:32.579Z,31.65
2022-08-17T16:39:00.823Z,31.55
2022-08-17T16:41:46.140Z,31.44
2022-08-17T16:44:15.862Z,31.27
2022-08-17T16:46:45.542Z,31.17
2022-08-17T16:49:36.119Z,31.09
2022-08-17T16:52:03.445Z,30.96
2022-08-17T16:54:30.409Z,30.84
2022-08-17T16:56:59.539Z,30.75
2022-08-17T16:59:39.414Z,30.67
2022-08-17T17:02:15.504Z,30.56
2022-08-17T17:04:54.569Z,30.46
2022-08-17T17:07:50.968Z,30.32
2022-08-17T17:10:36.184Z,30.14
2022-08-17T17:13:09.696Z,29.97
2022-08-17T17:15:52.437Z,29.78
2022-08-17T17:18:23.239Z,29.59
2022-08-17T17:20:57.105Z,29.42
2022-08-17T17:23:56.472Z,29.21
2022-08-17T17:26:39.035Z,29.02
2022-08-17T17:29:24.127Z,28.84
2022-08-17T17:32:09.685Z,28.67
2022-08-17T17:34:42.092Z,28.58
2022-08-17T17:37:20.375Z,28.56
2022-08-17T17:39:53.840Z,28.44
2022-08-17T17:42:28.385Z,28.30
2022-08-17T17:45:12.192Z,28.14
2022-08-17T17:47:39.343Z,28.02
2022-08-17T17:50:09.130Z,27.88
2022-08-17T17:52:42.386Z,27.72
2022-08-17T17:55:27.738Z,27.58
2022-08-17T17:58:06.627Z,27.44
2022-08-17T18:01:18.482Z,27.26
2022-08-17T18:04:04.658Z,27.13
2022-08-17T18:06:46.572Z,26.97
2022-08-17T18:09:34.002Z,26.84
2022-08-17T18:12:10.364Z,26.74
2022-08-17T18:15:01.639Z,26.58
2022-08-17T18:17:29.850Z,26.45
2022-08-17T18:19:57.107Z,26.32
2022-08-17T18:22:24.990Z,26.35
2022-08-17T18:24:56.448Z,26.27
2022-08-17T18:27:37.310Z,26.20
2022-08-17T18:30:13.652Z,26.10
2022-08-17T18:32:43.725Z,25.97
2022-08-17T18:35:10.944Z,25.84
2022-08-17T18:37:43.577Z,25.72
2022-08-17T18:40:16.513Z,25.61
2022-08-17T18:43:23.347Z,25.51
2022-08-17T18:45:53.740Z,25.57
2022-08-17T18:48:29.443Z,25.45
2022-08-17T18:51:04.930Z,25.32
2022-08-17T18:53:35.122Z,25.23
2022-08-17T18:56:23.398Z,25.16
2022-08-17T18:58:58.543Z,25.05
2022-08-17T19:01:41.957Z,24.90
2022-08-17T19:04:34.139Z,24.78
2022-08-17T19:07:10.934Z,24.81
2022-08-17T19:09:48.714Z,24.73
2022-08-17T19:12:38.295Z,24.72
2022-08-17T19:15:09.415Z,24.65
2022-08-17T19:18:02.759Z,24.58
2022-08-17T19:20:35.906Z,24.52
2022-08-17T19:23:14.157Z,24.51
2022-08-17T19:25:48.580Z,24.46
2022-08-17T19:28:27.920Z,24.30
2022-08-17T19:30:59.575Z,24.20
2022-08-17T19:33:27.336Z,24.08
2022-08-17T19:36:27.296Z,24.11
2022-08-17T19:39:06.008Z,23.96
2022-08-17T19:41:50.014Z,23.90
2022-08-17T19:44:46.538Z,23.84
2022-08-17T19:47:30.438Z,23.73
2022-08-17T19:50:27.393Z,23.66
2022-08-17T19:53:36.723Z,23.53
2022-08-17T19:56:24.357Z,23.45
2022-08-17T19:59:18.949Z,23.40
2022-08-17T20:01:53.969Z,23.34
2022-08-17T20:04:33.109Z,23.30
2022-08-17T20:07:08.214Z,23.25
2022-08-17T20:09:43.763Z,23.17
2022-08-17T20:12:17.603Z,23.11
2022-08-17T20:15:04.869Z,23.02
2022-08-17T20:17:37.367Z,22.94
2022-08-17T20:20:54.762Z,22.86
2022-08-17T20:23:31.282Z,22.79
2022-08-17T20:26:07.564Z,22.75
2022-08-17T20:28:39.016Z,22.69
2022-08-17T20:31:45.574Z,22.58
2022-08-17T20:34:37.090Z,22.51
2022-08-17T20:37:25.070Z,22.42
2022-08-17T20:39:52.794Z,22.38
2022-08-17T20:42:19.797Z,22.40
2022-08-17T20:44:58.072Z,22.37
2022-08-17T20:48:00.863Z,22.31
2022-08-17T20:50:47.092Z,22.25
2022-08-17T20:53:55.073Z,22.21
2022-08-17T20:56:43.890Z,22.20
2022-08-17T20:59:26.143Z,22.14
2022-08-17T21:02:08.946Z,22.09
2022-08-17T21:04:52.840Z,22.03
2022-08-17T21:07:42.579Z,22.00
2022-08-17T21:10:27.711Z,22.03
2022-08-17T21:13:28.307Z,21.99
2022-08-17T21:16:10.283Z,21.94
2022-08-17T21:19:00.715Z,21.98
2022-08-17T21:21:37.719Z,21.89
2022-08-17T21:24:22.243Z,21.88
2022-08-17T21:27:25.026Z,21.85
2022-08-17T21:30:30.525Z,21.88
2022-08-17T21:33:25.570Z,21.79
2022-08-17T21:36:16.105Z,21.72
2022-08-17T21:38:57.004Z,21.67
2022-08-17T21:41:27.433Z,21.63
2022-08-17T21:44:02.869Z,21.58
2022-08-17T21:46:31.617Z,21.54
2022-08-17T21:49:13.603Z,21.63
2022-08-17T21:51:47.315Z,21.59
2022-08-17T21:54:35.802Z,21.54
2022-08-17T21:57:06.072Z,21.47
2022-08-17T21:59:36.056Z,21.41
2022-08-17T22:02:05.770Z,21.35
2022-08-17T22:04:37.171Z,21.30
2022-08-17T22:07:11.385Z,21.28
2022-08-17T22:09:43.285Z,21.25
2022-08-17T22:12:18.284Z,21.20
2022-08-17T22:15:00.685Z,21.15
2022-08-17T22:17:36.979Z,21.05
2022-08-17T22:20:09.538Z,20.99
2022-08-17T22:23:18.292Z,20.96
2022-08-17T22:26:06.126Z,20.93
2022-08-17T22:31:58.519Z,20.94
2022-08-17T22:34:35.696Z,20.90
2022-08-17T22:37:28.383Z,20.88
2022-08-17T22:39:59.471Z,20.86
2022-08-17T22:42:28.620Z,20.81
2022-08-17T22:44:55.666Z,20.76
2022-08-17T22:47:40.965Z,20.75
2022-08-17T22:50:37.447Z,20.69
2022-08-17T22:53:34.355Z,20.67
2022-08-17T22:56:19.964Z,20.61
2022-08-17T22:59:13.314Z,20.62
2022-08-17T23:01:43.560Z,20.62
2022-08-17T23:04:29.323Z,20.62
2022-08-17T23:06:56.302Z,20.62
2022-08-17T23:09:23.665Z,20.64
2022-08-17T23:11:58.717Z,20.68
2022-08-17T23:14:31.565Z,20.65
2022-08-17T23:16:59.443Z,20.56
2022-08-17T23:19:27.682Z,20.49
2022-08-17T23:21:56.379Z,20.50
2022-08-17T23:24:27.115Z,20.46
2022-08-17T23:26:57.350Z,20.42
2022-08-17T23:29:29.532Z,20.44
2022-08-17T23:31:59.988Z,20.41
2022-08-17T23:34:28.680Z,20.36
2022-08-17T23:36:58.078Z,20.31
2022-08-17T23:39:28.404Z,20.25
2022-08-17T23:41:58.410Z,20.20
2022-08-17T23:44:26.257Z,20.17
2022-08-17T23:46:56.504Z,20.09
2022-08-17T23:49:25.119Z,20.06
2022-08-17T23:51:54.850Z,20.04
2022-08-17T23:54:26.606Z,19.99
2022-08-17T23:56:53.940Z,19.94
2022-08-17T23:59:23.140Z,19.89
